Deer Lodge, Montana
Current Conditions -  °F | °C
As of 3:53 PM on Saturday 25 Oct 2014 (Local Time) from KBTM Reporting Station
Clear Clear  
Wind Chill: 66°   Ceiling: Unl
Heat Index: 66°   Visibility: 10mi
Dew Point: 31°   Wind: 17mph
Humidity: 27%   Direction: 170°S
Pressure: 29.83"   Gusts: NA
Location:  46.4°N, 112.73°W
Report Text: KBTM 252153Z AUTO 17015KT 10SM CLR 19/M01 A2983 RMK AO2 SLP077 T01891006
Loading
Personal Weather Stations






























Interactive Weather Map
Tropical Storm Tracking
New forecast layout! Learn more

10-Day Weather Forecast

Advertisements
Track Severe Weather on mobile